< < Back
Terminal Aerodrome Forecast


Current Version              Previous Versions:   1  2  3  4  5  6  7  8  9  

Terminal Aerodrome Forecast

598
FTUS42 KFFC 022339
TAFCSG
TAF
KCSG 022339Z 0300/0324 00000KT P6SM FEW070 SCT200
     FM031400 32003KT P6SM SCT045 BKN200
     FM031700 30004KT P6SM BKN050 PROB30 0320/0324 -SHRA=



Latest METAR

171
SAUS70 KWBC 030300
MTRCSG
METAR KCSG 030251Z AUTO 00000KT 10SM CLR 27/22 A3001 RMK AO2 SLP155
T02720222 52010


USA.gov is the U.S. government's official web portal to all federal, state and local government web resources and services.